Seri Ayu — 9MFE7 — position and weather

sailwx.info

Track history (hours):
 
Tides and Currents Weather Stations Pressure Air Temp Water Temp Dewpoint Dewpoint Depression Visibility Wind Speed Wind Dir Waves Ship Positions

Seri Ayu

Last reported at 2018-Apr-17 07:46 UTC. Time now 2018-Apr-23 05:31 UTC.
Position N 34°02' E 139°12'.

Length 283 m; draft 10 m.

Type: Ship (hazmat cat D). MMSI: 533942000.

Date/timePositionNaut miles runAvg speedWind from/ knotsBaromVisibWave heightAir tempDewpointWater temp
2018-Apr-17 07:46N 34°02' E 139°12'612.5
2018-Apr-17 07:19N 34°07' E 139°16'413.7
2018-Apr-17 07:00N 34°10' E 139°20'1113.7
2018-Apr-17 06:13N 34°19' E 139°28'314.2
2018-Apr-17 06:00N 34°21' E 139°30'814.6
2018-Apr-17 05:27N 34°27' E 139°36'613.3
2018-Apr-17 05:00N 34°33' E 139°39'1214.1
2018-Apr-17 04:09N 34°45' E 139°38'214.7
2018-Apr-17 03:59N 34°47' E 139°38'613.1
2018-Apr-17 03:30N 34°54' E 139°37'714.2
2018-Apr-17 03:01N 35°00' E 139°41'815.2
2018-Apr-17 02:31N 35°07' E 139°45'612.6
2018-Apr-17 02:00N 35°13' E 139°46'612.7
2018-Apr-17 01:30N 35°19' E 139°43'612.3
2018-Apr-17 01:00N 35°25' E 139°43'3 5.2
2018-Apr-17 00:30N 35°28' E 139°43'0 0.0
2018-Apr-17 00:00N 35°28' E 139°43'0 0.0
2018-Apr-16 23:27N 35°28' E 139°43'0 0.0
2018-Apr-16 22:39N 35°28' E 139°43'0 0.0
2018-Apr-16 22:30N 35°28' E 139°43'0 0.0
2018-Apr-16 22:00N 35°28' E 139°43'0 0.0
2018-Apr-16 21:30N 35°28' E 139°43'0 0.0
2018-Apr-16 21:00N 35°28' E 139°43'0 0.0
2018-Apr-16 20:30N 35°28' E 139°43'0 0.0
2018-Apr-16 19:57N 35°28' E 139°43'0 0.0
2018-Apr-16 19:30N 35°28' E 139°43'0 0.0
2018-Apr-16 19:00N 35°28' E 139°43'0 0.0
2018-Apr-16 18:30N 35°28' E 139°43'0 0.0
2018-Apr-16 18:00N 35°28' E 139°43'0 0.0
2018-Apr-16 17:27N 35°28' E 139°43'0 0.0
2018-Apr-16 16:57N 35°28' E 139°43'0 0.0
2018-Apr-16 16:30N 35°28' E 139°43'0 0.0
2018-Apr-16 16:00N 35°28' E 139°43'0 0.0
2018-Apr-16 15:27N 35°28' E 139°43'0 0.0
2018-Apr-16 15:00N 35°28' E 139°43'0 0.0
2018-Apr-16 14:27N 35°28' E 139°43'0 0.0
2018-Apr-16 13:57N 35°28' E 139°43'0 0.0
2018-Apr-16 13:30N 35°28' E 139°43'0 0.0
2018-Apr-16 12:54N 35°28' E 139°43'0 0.0
2018-Apr-16 12:27N 35°28' E 139°43'0 0.0
2018-Apr-16 12:00N 35°28' E 139°43'0 0.0
2018-Apr-16 11:30N 35°28' E 139°43'0 0.0
2018-Apr-16 10:57N 35°28' E 139°43'0 0.0
2018-Apr-16 10:30N 35°28' E 139°43'0 0.0
2018-Apr-16 10:00N 35°28' E 139°43'0 0.0
2018-Apr-16 09:30N 35°28' E 139°43'0 0.0
2018-Apr-16 09:00N 35°28' E 139°43'0 0.0
2018-Apr-16 08:30N 35°28' E 139°43'0 0.0
2018-Apr-16 08:00N 35°28' E 139°43'0 0.0
2018-Apr-16 07:30N 35°28' E 139°43'0 0.0
2018-Apr-16 06:51N 35°28' E 139°43'0 0.0
2018-Apr-16 06:30N 35°28' E 139°43'0 0.0
2018-Apr-16 05:51N 35°28' E 139°43'0 0.0
2018-Apr-16 05:27N 35°28' E 139°43'0 0.0
2018-Apr-16 04:57N 35°28' E 139°43'0 0.0
2018-Apr-16 04:30N 35°28' E 139°43'0 0.0
2018-Apr-16 03:51N 35°28' E 139°43'0 0.0
2018-Apr-16 03:27N 35°28' E 139°43'0 0.0
2018-Apr-16 03:00N 35°28' E 139°43'0 0.0
2018-Apr-16 02:27N 35°28' E 139°43'0 0.0
2018-Apr-16 02:00N 35°28' E 139°43'0 0.0
2018-Apr-16 01:24N 35°28' E 139°43'0 0.0
2018-Apr-16 01:00N 35°28' E 139°43'1 1.0
2018-Apr-16 00:30N 35°27' E 139°43'3 5.2
2018-Apr-16 00:00N 35°26' E 139°46'5 9.4
2018-Apr-15 23:30N 35°22' E 139°45'510.4
2018-Apr-15 23:00N 35°17' E 139°46'611.0
2018-Apr-15 22:30N 35°11' E 139°47'4 8.6
2018-Apr-15 22:00N 35°07' E 139°46'4 8.9
2018-Apr-15 21:30N 35°03' E 139°44'4 8.1
2018-Apr-15 20:58N 34°59' E 139°41'4 8.3
2018-Apr-15 20:30N 34°55' E 139°41'4 8.4
2018-Apr-15 20:00N 34°51' E 139°41'4 8.5
2018-Apr-15 19:30N 34°47' E 139°41'916.9
2018-Apr-15 19:00N 34°38' E 139°40'14 9.2
2018-Apr-15 17:28N 34°26' E 139°32'816.5
2018-Apr-15 17:00N 34°24' E 139°41'2411.3
2018-Apr-15 14:56N 34°10' E 139°19'  
Track history (hours):
 
Tides and Currents Weather Stations Pressure Air Temp Water Temp Dewpoint Dewpoint Depression Visibility Wind Speed Wind Dir Waves Ship Positions

Seri Ayu

Last reported at 2018-Apr-17 07:46 UTC. Time now 2018-Apr-23 05:31 UTC.
Position N 34°02' E 139°12'.

Length 283 m; draft 10 m.

Type: Ship (hazmat cat D). MMSI: 533942000.

Date/timePositionNaut miles runAvg speedWind from/ knotsBaromVisibWave heightAir tempDewpointWater temp
2018-Apr-17 07:46N 34°02' E 139°12'612.5
2018-Apr-17 07:19N 34°07' E 139°16'413.7
2018-Apr-17 07:00N 34°10' E 139°20'1113.7
2018-Apr-17 06:13N 34°19' E 139°28'314.2
2018-Apr-17 06:00N 34°21' E 139°30'814.6
2018-Apr-17 05:27N 34°27' E 139°36'613.3
2018-Apr-17 05:00N 34°33' E 139°39'1214.1
2018-Apr-17 04:09N 34°45' E 139°38'214.7
2018-Apr-17 03:59N 34°47' E 139°38'613.1
2018-Apr-17 03:30N 34°54' E 139°37'714.2
2018-Apr-17 03:01N 35°00' E 139°41'815.2
2018-Apr-17 02:31N 35°07' E 139°45'612.6
2018-Apr-17 02:00N 35°13' E 139°46'612.7
2018-Apr-17 01:30N 35°19' E 139°43'612.3
2018-Apr-17 01:00N 35°25' E 139°43'3 5.2
2018-Apr-17 00:30N 35°28' E 139°43'0 0.0
2018-Apr-17 00:00N 35°28' E 139°43'0 0.0
2018-Apr-16 23:27N 35°28' E 139°43'0 0.0
2018-Apr-16 22:39N 35°28' E 139°43'0 0.0
2018-Apr-16 22:30N 35°28' E 139°43'0 0.0
2018-Apr-16 22:00N 35°28' E 139°43'0 0.0
2018-Apr-16 21:30N 35°28' E 139°43'0 0.0
2018-Apr-16 21:00N 35°28' E 139°43'0 0.0
2018-Apr-16 20:30N 35°28' E 139°43'0 0.0
2018-Apr-16 19:57N 35°28' E 139°43'0 0.0
2018-Apr-16 19:30N 35°28' E 139°43'0 0.0
2018-Apr-16 19:00N 35°28' E 139°43'0 0.0
2018-Apr-16 18:30N 35°28' E 139°43'0 0.0
2018-Apr-16 18:00N 35°28' E 139°43'0 0.0
2018-Apr-16 17:27N 35°28' E 139°43'0 0.0
2018-Apr-16 16:57N 35°28' E 139°43'0 0.0
2018-Apr-16 16:30N 35°28' E 139°43'0 0.0
2018-Apr-16 16:00N 35°28' E 139°43'0 0.0
2018-Apr-16 15:27N 35°28' E 139°43'0 0.0
2018-Apr-16 15:00N 35°28' E 139°43'0 0.0
2018-Apr-16 14:27N 35°28' E 139°43'0 0.0
2018-Apr-16 13:57N 35°28' E 139°43'0 0.0
2018-Apr-16 13:30N 35°28' E 139°43'0 0.0
2018-Apr-16 12:54N 35°28' E 139°43'0 0.0
2018-Apr-16 12:27N 35°28' E 139°43'0 0.0
2018-Apr-16 12:00N 35°28' E 139°43'0 0.0
2018-Apr-16 11:30N 35°28' E 139°43'0 0.0
2018-Apr-16 10:57N 35°28' E 139°43'0 0.0
2018-Apr-16 10:30N 35°28' E 139°43'0 0.0
2018-Apr-16 10:00N 35°28' E 139°43'0 0.0
2018-Apr-16 09:30N 35°28' E 139°43'0 0.0
2018-Apr-16 09:00N 35°28' E 139°43'0 0.0
2018-Apr-16 08:30N 35°28' E 139°43'0 0.0
2018-Apr-16 08:00N 35°28' E 139°43'0 0.0
2018-Apr-16 07:30N 35°28' E 139°43'0 0.0
2018-Apr-16 06:51N 35°28' E 139°43'0 0.0
2018-Apr-16 06:30N 35°28' E 139°43'0 0.0
2018-Apr-16 05:51N 35°28' E 139°43'0 0.0
2018-Apr-16 05:27N 35°28' E 139°43'0 0.0
2018-Apr-16 04:57N 35°28' E 139°43'0 0.0
2018-Apr-16 04:30N 35°28' E 139°43'0 0.0
2018-Apr-16 03:51N 35°28' E 139°43'0 0.0
2018-Apr-16 03:27N 35°28' E 139°43'0 0.0
2018-Apr-16 03:00N 35°28' E 139°43'0 0.0
2018-Apr-16 02:27N 35°28' E 139°43'0 0.0
2018-Apr-16 02:00N 35°28' E 139°43'0 0.0
2018-Apr-16 01:24N 35°28' E 139°43'0 0.0
2018-Apr-16 01:00N 35°28' E 139°43'1 1.0
2018-Apr-16 00:30N 35°27' E 139°43'3 5.2
2018-Apr-16 00:00N 35°26' E 139°46'5 9.4
2018-Apr-15 23:30N 35°22' E 139°45'510.4
2018-Apr-15 23:00N 35°17' E 139°46'611.0
2018-Apr-15 22:30N 35°11' E 139°47'4 8.6
2018-Apr-15 22:00N 35°07' E 139°46'4 8.9
2018-Apr-15 21:30N 35°03' E 139°44'4 8.1
2018-Apr-15 20:58N 34°59' E 139°41'4 8.3
2018-Apr-15 20:30N 34°55' E 139°41'4 8.4
2018-Apr-15 20:00N 34°51' E 139°41'4 8.5
2018-Apr-15 19:30N 34°47' E 139°41'916.9
2018-Apr-15 19:00N 34°38' E 139°40'14 9.2
2018-Apr-15 17:28N 34°26' E 139°32'816.5
2018-Apr-15 17:00N 34°24' E 139°41'2411.3
2018-Apr-15 14:56N 34°10' E 139°19'  

Dump ship's entire track history